METAR Data
IDs: Format: Raw Decoded Include TAF

Data at: 1227 UTC 16 Jul 2019

KLRU 161215Z AUTO 00000KT 10SM CLR 23/09 A3005 RMK AO2 T02280086
KLRU 161155Z AUTO 21004KT 10SM CLR 25/08 A3004 RMK AO2 T02460080 10300 20222
KLRU 161135Z AUTO 20004KT 10SM CLR 24/08 A3004 RMK AO2 T02400078
KLRU 161115Z AUTO 24003KT 10SM CLR 23/07 A3004 RMK AO2 T02310072
KLRU 161055Z AUTO 16003KT 10SM CLR 26/08 A3003 RMK AO2 T02560075
KLRU 161035Z AUTO 16003KT 10SM CLR 22/08 A3003 RMK AO2 T02220080
KLRU 161015Z AUTO 00000KT 10SM CLR 23/07 A3003 RMK AO2 T02320073
KLRU 160955Z AUTO 00000KT 10SM CLR 26/07 A3003 RMK AO2 T02610072
KLRU 160935Z AUTO 15004KT 10SM CLR 27/07 A3002 RMK AO2 T02650071
KLRU 160915Z AUTO 13005KT 10SM CLR 27/07 A3002 RMK AO2 T02720071
KLRU 160855Z AUTO 14007KT 10SM CLR 28/07 A3003 RMK AO2 T02760070
KLRU 160835Z AUTO 14006KT 10SM CLR 27/07 A3003 RMK AO2 T02700073
KLRU 160815Z AUTO 14003KT 10SM CLR 25/09 A3004 RMK AO2 T02500086
KLRU 160755Z AUTO 00000KT 10SM CLR 27/08 A3004 RMK AO2 T02710081
KLRU 160735Z AUTO 00000KT 10SM CLR 28/08 A3005 RMK AO2 T02790076
KLRU 160715Z AUTO 24003KT 10SM CLR 28/08 A3006 RMK AO2 T02760077
KLRU 160655Z AUTO 08006KT 10SM CLR 29/08 A3005 RMK AO2 T02850076
KLRU 160635Z AUTO 05005KT 10SM CLR 29/08 A3005 RMK AO2 T02890077
KLRU 160615Z AUTO 04006KT 10SM CLR 30/08 A3005 RMK AO2 T02990075
KLRU 160555Z AUTO 03006KT 10SM CLR 30/07 A3006 RMK AO2 T03010070 10380 20301
KLRU 160535Z AUTO 34006KT 10SM CLR 31/07 A3006 RMK AO2 T03080068
KLRU 160515Z AUTO 30005KT 10SM CLR 31/07 A3006 RMK AO2 T03100068
KLRU 160455Z AUTO 03007KT 10SM CLR 32/05 A3006 RMK AO2 T03220053
KLRU 160435Z AUTO 19003KT 10SM CLR 31/05 A3004 RMK AO2 T03110050
KLRU 160415Z AUTO 19006KT 10SM CLR 31/05 A3003 RMK AO2 T03070051
KLRU 160355Z AUTO 17006KT 10SM CLR 31/06 A3002 RMK AO2 T03070056
KLRU 160335Z AUTO 17005KT 10SM CLR 31/06 A3002 RMK AO2 T03100058
KLRU 160315Z AUTO 16005KT 10SM CLR 31/07 A3001 RMK AO2 T03060065
KLRU 160255Z AUTO 15005KT 10SM CLR 32/06 A3001 RMK AO2 T03160062
KLRU 160235Z AUTO 14005KT 10SM CLR 32/07 A3000 RMK AO2 T03170066
KLRU 160215Z AUTO 13004KT 10SM CLR 33/06 A2999 RMK AO2 T03300058
KLRU 160155Z AUTO 14005KT 10SM CLR 34/05 A2999 RMK AO2 T03440047
KLRU 160135Z AUTO 13009KT 10SM CLR 36/05 A2999 RMK AO2 T03560046
KLRU 160115Z AUTO 14008KT 10SM CLR 36/04 A2999 RMK AO2 T03580040
KLRU 160055Z AUTO 10008KT 10SM CLR 37/05 A2999 RMK AO2 LTG DSNT NW T03700053
KLRU 160035Z AUTO 14009KT 10SM CLR 38/04 A2999 RMK AO2 T03770039
KLRU 160015Z AUTO 12007G12KT 10SM CLR 38/05 A2999 RMK AO2 T03760053
KLRU 152355Z AUTO 12007KT 10SM CLR 38/05 A2999 RMK AO2 LTG DSNT NE T03750053 10384 20338
KLRU 152335Z AUTO 13009KT 10SM CLR 38/05 A2999 RMK AO2 LTG DSNT W T03790052
KLRU 152315Z AUTO 10007KT 10SM CLR 38/06 A3000 RMK AO2 T03820056
KLRU 152255Z AUTO 15006KT 10SM CLR 38/05 A3000 RMK AO2 LTG DSNT NW T03800052
KLRU 152235Z AUTO 13007G14KT 10SM CLR 38/06 A3002 RMK AO2 T03800058
KLRU 152210Z AUTO 11011KT 10SM CLR 38/06 A3002 RMK AO2 T03830059
KLRU 152155Z AUTO 10009KT 050V120 10SM CLR 38/05 A3003 RMK AO2 LTG DSNT N T03760054
KLRU 152135Z AUTO 11006KT 10SM CLR 38/06 A3003 RMK AO2 T03760057
KLRU 152115Z AUTO 10008KT 10SM CLR 37/05 A3004 RMK AO2 T03710052
KLRU 152055Z AUTO 24004KT 10SM CLR 38/05 A3006 RMK AO2 LTG DSNT W T03760051
KLRU 152035Z AUTO 13005KT 10SM CLR 37/05 A3006 RMK AO2 LTG DSNT NE T03730052
KLRU 152015Z AUTO 19003KT 10SM CLR 37/05 A3007 RMK AO2 T03690050
KLRU 151955Z AUTO 12007KT 10SM CLR 36/05 A3008 RMK AO2 T03580049
KLRU 151935Z AUTO 13007KT 10SM CLR 36/05 A3009 RMK AO2 T03620049
KLRU 151915Z AUTO 16005KT 10SM CLR 35/05 A3010 RMK AO2 T03530047
KLRU 151855Z AUTO 14004KT 10SM CLR 35/05 A3011 RMK AO2 T03510047
KLRU 151835Z AUTO 16006KT 10SM CLR 35/05 A3012 RMK AO2 T03520051
KLRU 151815Z AUTO 17007KT 10SM CLR 35/05 A3012 RMK AO2 T03460054
KLRU 151755Z AUTO 17008KT 10SM CLR 34/06 A3012 RMK AO2 T03370061 10338 20195
KLRU 151735Z AUTO 14006KT 10SM CLR 33/07 A3014 RMK AO2 T03280074
KLRU 151715Z AUTO 14007KT 10SM CLR 32/08 A3014 RMK AO2 T03240079
KLRU 151655Z AUTO 10005KT 10SM CLR 31/10 A3015 RMK AO2 T03130103
KLRU 151635Z AUTO 12004KT 10SM CLR 30/10 A3015 RMK AO2 T03040101
KLRU 151615Z AUTO 08005KT 10SM CLR 30/10 A3016 RMK AO2 T02950097
KLRU 151555Z AUTO 09005KT 10SM CLR 29/10 A3016 RMK AO2 T02890097
KLRU 151535Z AUTO 08005KT 10SM CLR 29/10 A3016 RMK AO2 T02850102
KLRU 151515Z AUTO 10005KT 10SM CLR 28/11 A3016 RMK AO2 T02790108
KLRU 151455Z AUTO 09005KT 10SM CLR 27/12 A3016 RMK AO2 T02680115
KLRU 151435Z AUTO 09004KT 10SM CLR 26/13 A3016 RMK AO2 T02570127
KLRU 151415Z AUTO 08007KT 10SM CLR 25/14 A3016 RMK AO2 T02480136
KLRU 151355Z AUTO 10006KT 10SM CLR 26/11 A3015 RMK AO2 T02610111
KLRU 151335Z AUTO 00000KT 10SM CLR 25/12 A3015 RMK AO2 T02520116
KLRU 151315Z AUTO 17003KT 10SM CLR 23/12 A3015 RMK AO2 T02330122
KLRU 151255Z AUTO 34004KT 10SM CLR 20/12 A3014 RMK AO2 T02040120
KLRU 151235Z AUTO 29003KT 10SM CLR 20/11 A3013 RMK AO2 T02010105
KLRU 151215Z AUTO 27006KT 10SM CLR 20/12 A3013 RMK AO2 T01980124
KLRU 151155Z AUTO 25004KT 10SM CLR 20/13 A3012 RMK AO2 70009 T02020134 10252 20202
KLRU 151135Z AUTO 25005KT 10SM CLR 22/13 A3012 RMK AO2 T02220127
KLRU 151115Z AUTO 19004KT 10SM CLR 23/12 A3011 RMK AO2 T02310116
KLRU 151055Z AUTO 16004KT 10SM CLR 23/12 A3011 RMK AO2 T02270121
KLRU 151035Z AUTO 15004KT 10SM CLR 23/09 A3011 RMK AO2 T02340093
KLRU 151015Z AUTO 14004KT 10SM CLR 23/10 A3011 RMK AO2 T02340100
KLRU 150955Z AUTO 15005KT 10SM CLR 23/10 A3011 RMK AO2 T02330102
KLRU 150935Z AUTO 15005KT 10SM CLR 23/10 A3011 RMK AO2 T02330100
KLRU 150915Z AUTO 14005KT 10SM CLR 24/10 A3011 RMK AO2 T02350099
KLRU 150855Z AUTO 13006KT 10SM CLR 24/10 A3011 RMK AO2 T02400100
KLRU 150835Z AUTO 11005KT 10SM CLR 24/11 A3011 RMK AO2 T02420109
KLRU 150815Z AUTO 09006KT 10SM CLR 25/11 A3011 RMK AO2 T02510105
KLRU 150755Z AUTO 08007KT 10SM CLR 25/12 A3011 RMK AO2 T02500116
KLRU 150735Z AUTO 05007KT 10SM CLR 24/13 A3012 RMK AO2 T02400133
KLRU 150715Z AUTO 05006KT 10SM CLR 24/14 A3012 RMK AO2 T02400136
KLRU 150655Z AUTO 05007KT 10SM CLR 24/14 A3012 RMK AO2 T02410138
KLRU 150635Z AUTO 04004KT 10SM CLR 24/14 A3012 RMK AO2 T02400144
KLRU 150615Z AUTO 04006KT 10SM CLR 25/14 A3012 RMK AO2 T02500142
KLRU 150555Z AUTO 05004KT 10SM CLR 24/15 A3012 RMK AO2 60009 T02430151 10375 20243
KLRU 150535Z AUTO 05003KT 10SM CLR 24/15 A3012 RMK AO2 T02440154
KLRU 150515Z AUTO 01003KT 10SM CLR 25/14 A3012 RMK AO2 T02530142
KLRU 150455Z AUTO 02005KT 10SM CLR 26/14 A3012 RMK AO2 T02590137
KLRU 150435Z AUTO 03005KT 10SM CLR 26/15 A3012 RMK AO2 T02620145
KLRU 150415Z AUTO 07003KT 10SM SCT120 29/11 A3012 RMK AO2 T02850113
KLRU 150355Z AUTO 12003KT 10SM SCT120 29/14 A3010 RMK AO2 T02860138
KLRU 150335Z AUTO 35004KT 10SM VCTS BKN110 30/10 A3010 RMK AO2 T02980100
KLRU 150315Z AUTO 28009KT 10SM SCT050 SCT070 BKN110 30/10 A3008 RMK AO2 T03030095
KLRU 150255Z AUTO 36007KT 320V030 10SM RA SCT021 SCT050 OVC110 27/11 A3009 RMK AO2 LTG DSNT W P0009 60009 T02700109
KLRU 150235Z AUTO 25009G25KT 190V280 4SM +TSRA SCT021 SCT049 OVC110 25/12 A3011 RMK AO2 LTG DSNT S THRU W P0009 T02530118
KLRU 150215Z AUTO 10019G29KT 10SM VCTSRA BKN110 30/10 A3010 RMK AO2 LTG DSNT ALQS T02990099
KLRU 150155Z AUTO 06018G24KT 10SM TS SCT120 31/10 A3008 RMK AO2 LTG DSNT E SE AND NW T03080102
KLRU 150135Z AUTO 06014G19KT 10SM SCT120 34/09 A3007 RMK AO2 LTG DSNT NE AND E T03380090
KLRU 150115Z AUTO 10005KT 10SM SCT120 35/06 A3006 RMK AO2 T03510060
KLRU 150055Z AUTO 19004KT 10SM CLR 36/05 A3005 RMK AO2 LTG DSNT NW T03550052
KLRU 150035Z AUTO 00000KT 10SM SCT110 36/05 A3005 RMK AO2 T03610053